createdAt,value
2023-02-26T08:08:28.268Z,8.43
2023-02-26T08:10:56.557Z,9.60
2023-02-26T08:13:25.068Z,10.37
2023-02-26T08:15:54.716Z,8.90
2023-02-26T08:18:24.411Z,21.73
2023-02-26T08:20:54.765Z,7.97
2023-02-26T08:23:23.251Z,4.67
2023-02-26T08:25:51.380Z,5.43
2023-02-26T08:28:19.395Z,10.27
2023-02-26T08:30:48.929Z,8.60
2023-02-26T08:33:17.830Z,16.87
2023-02-26T08:35:47.481Z,8.23
2023-02-26T08:38:15.405Z,11.27
2023-02-26T08:40:44.133Z,10.20
2023-02-26T08:43:13.357Z,8.10
2023-02-26T08:45:42.008Z,6.97
2023-02-26T08:48:12.036Z,6.33
2023-02-26T08:50:41.046Z,7.10
2023-02-26T08:53:12.268Z,6.53
2023-02-26T08:55:42.353Z,6.10
2023-02-26T08:58:10.523Z,6.87
2023-02-26T09:00:40.585Z,5.63
2023-02-26T09:03:09.349Z,4.80
2023-02-26T09:05:38.307Z,7.40
2023-02-26T09:08:08.186Z,20.97
2023-02-26T09:10:40.211Z,21.50
2023-02-26T09:13:09.884Z,7.40
2023-02-26T09:15:39.501Z,9.23
2023-02-26T09:18:08.006Z,6.67
2023-02-26T09:20:37.904Z,7.83
2023-02-26T09:23:07.341Z,8.23
2023-02-26T09:25:39.172Z,7.33
2023-02-26T09:28:08.734Z,7.83
2023-02-26T09:30:41.044Z,5.60
2023-02-26T09:33:10.524Z,3.70
2023-02-26T09:35:41.121Z,4.60
2023-02-26T09:38:09.205Z,3.97
2023-02-26T09:40:48.968Z,4.13
2023-02-26T09:43:50.430Z,3.40
2023-02-26T09:46:48.597Z,3.00
2023-02-26T09:49:32.921Z,2.70
2023-02-26T09:52:26.805Z,2.70
2023-02-26T09:55:02.402Z,2.27
2023-02-26T09:57:37.726Z,2.20
2023-02-26T10:00:30.015Z,3.40
2023-02-26T10:03:11.366Z,3.97
2023-02-26T10:06:05.958Z,4.23
2023-02-26T10:08:44.389Z,6.35
2023-02-26T10:11:22.355Z,2.72
2023-02-26T10:13:58.547Z,2.50
2023-02-26T10:16:31.752Z,2.85
2023-02-26T10:19:07.972Z,3.03
2023-02-26T10:21:47.937Z,2.80
2023-02-26T10:24:47.491Z,6.87
2023-02-26T10:27:38.075Z,3.50
2023-02-26T10:30:27.912Z,3.97
2023-02-26T10:33:26.080Z,5.23
2023-02-26T10:36:02.075Z,17.40
2023-02-26T10:38:31.980Z,3.57
2023-02-26T10:41:08.081Z,3.00
2023-02-26T10:44:00.419Z,2.80
2023-02-26T10:46:43.971Z,4.33
2023-02-26T10:49:46.879Z,3.03
2023-02-26T10:52:19.225Z,3.70
2023-02-26T10:55:03.894Z,3.47
2023-02-26T10:57:36.207Z,2.90
2023-02-26T11:00:07.798Z,3.83
2023-02-26T11:02:43.619Z,2.80
2023-02-26T11:05:31.847Z,3.43
2023-02-26T11:08:09.796Z,3.77
2023-02-26T11:10:48.271Z,4.10
2023-02-26T11:13:16.559Z,6.10
2023-02-26T11:15:49.238Z,6.93
2023-02-26T11:18:26.052Z,2.93
2023-02-26T11:20:58.117Z,7.20
2023-02-26T11:23:30.844Z,6.97
2023-02-26T11:26:18.744Z,7.10
2023-02-26T11:28:54.150Z,3.50
2023-02-26T11:31:24.893Z,3.00
2023-02-26T11:34:11.488Z,2.93
2023-02-26T11:36:42.268Z,2.70
2023-02-26T11:39:21.456Z,3.40
2023-02-26T11:41:51.404Z,3.10
2023-02-26T11:44:28.312Z,3.23
2023-02-26T11:46:59.316Z,3.20
2023-02-26T11:49:29.755Z,4.10
2023-02-26T11:52:09.398Z,3.20
2023-02-26T11:54:40.066Z,3.80
2023-02-26T11:57:16.749Z,3.33
2023-02-26T11:59:50.937Z,2.50
2023-02-26T12:02:21.780Z,3.63
2023-02-26T12:04:58.724Z,3.33
2023-02-26T12:07:26.506Z,3.40
2023-02-26T12:09:54.818Z,6.07
2023-02-26T12:12:53.693Z,3.70
2023-02-26T12:15:31.855Z,3.70
2023-02-26T12:17:59.885Z,3.30
2023-02-26T12:20:43.374Z,8.33
2023-02-26T12:23:13.963Z,8.10
2023-02-26T12:26:00.337Z,3.03
2023-02-26T12:28:56.602Z,2.53
2023-02-26T12:31:52.907Z,2.33
2023-02-26T12:34:41.785Z,4.03
2023-02-26T12:37:39.681Z,4.20
2023-02-26T12:40:46.114Z,3.57
2023-02-26T12:43:31.216Z,3.83
2023-02-26T12:46:25.046Z,3.10
2023-02-26T12:49:04.673Z,6.03
2023-02-26T12:51:43.932Z,5.70
2023-02-26T12:54:12.033Z,5.40
2023-02-26T12:56:49.465Z,3.00
2023-02-26T12:59:17.917Z,2.97
2023-02-26T13:02:07.191Z,2.10
2023-02-26T13:04:59.089Z,3.60
2023-02-26T13:07:27.731Z,2.53
2023-02-26T13:10:26.145Z,4.37
2023-02-26T13:13:19.410Z,3.70
2023-02-26T13:16:09.193Z,3.37
2023-02-26T13:18:53.533Z,6.83
2023-02-26T13:21:39.339Z,3.17
2023-02-26T13:24:16.964Z,7.07
2023-02-26T13:26:46.679Z,5.37
2023-02-26T13:29:25.932Z,12.90
2023-02-26T13:32:15.095Z,12.90
2023-02-26T13:35:04.695Z,17.60
2023-02-26T13:37:39.841Z,7.20
2023-02-26T13:40:11.059Z,8.27
2023-02-26T13:42:39.507Z,10.30
2023-02-26T13:45:20.114Z,13.70
2023-02-26T13:48:10.223Z,14.73
2023-02-26T13:50:51.459Z,10.40
2023-02-26T13:53:29.906Z,17.33
2023-02-26T13:56:10.163Z,17.43
2023-02-26T13:58:44.683Z,20.50
2023-02-26T14:01:28.819Z,17.87
2023-02-26T14:04:09.479Z,11.07
2023-02-26T14:06:44.344Z,6.00
2023-02-26T14:09:27.435Z,6.77
2023-02-26T14:11:55.790Z,15.57
2023-02-26T14:14:27.176Z,8.90
2023-02-26T14:17:08.167Z,9.60
2023-02-26T14:19:39.994Z,8.40
2023-02-26T14:22:14.458Z,8.43
2023-02-26T14:25:01.906Z,7.27
2023-02-26T14:27:35.935Z,14.73
2023-02-26T14:30:05.525Z,13.43
2023-02-26T14:32:52.835Z,7.43
2023-02-26T14:35:30.301Z,32.90
2023-02-26T14:38:19.527Z,21.53
2023-02-26T14:41:00.023Z,9.57
2023-02-26T14:43:45.425Z,8.03
2023-02-26T14:46:14.051Z,8.63
2023-02-26T14:48:42.997Z,11.00
2023-02-26T14:51:50.707Z,7.47
2023-02-26T14:54:54.057Z,10.17
2023-02-26T14:57:22.711Z,11.17
2023-02-26T15:00:14.676Z,10.63
2023-02-26T15:03:37.375Z,8.13
2023-02-26T15:06:12.158Z,10.57
2023-02-26T15:08:48.909Z,10.80
2023-02-26T15:11:17.556Z,11.53
2023-02-26T15:13:53.180Z,10.17
2023-02-26T15:16:25.639Z,8.17
2023-02-26T15:18:54.069Z,12.37
2023-02-26T15:21:46.778Z,16.00
2023-02-26T15:24:17.154Z,25.90
2023-02-26T15:26:53.392Z,15.03
2023-02-26T15:29:29.325Z,9.40
2023-02-26T15:32:06.245Z,6.27
2023-02-26T15:34:34.681Z,6.50
2023-02-26T15:37:02.897Z,6.23
2023-02-26T15:39:31.477Z,7.53
2023-02-26T15:41:59.773Z,9.50
2023-02-26T15:44:33.276Z,8.53
2023-02-26T15:47:03.821Z,7.37
2023-02-26T15:49:41.966Z,9.70
2023-02-26T15:52:15.989Z,14.90
2023-02-26T15:54:52.852Z,9.70
2023-02-26T15:57:21.724Z,12.60
2023-02-26T15:59:52.912Z,8.87
2023-02-26T16:02:28.488Z,11.37
2023-02-26T16:04:56.861Z,11.23
2023-02-26T16:07:25.225Z,9.50
2023-02-26T16:09:56.306Z,14.37
2023-02-26T16:12:45.036Z,12.73
2023-02-26T16:15:17.596Z,11.43
2023-02-26T16:17:49.763Z,8.70
2023-02-26T16:20:22.055Z,14.87
2023-02-26T16:22:55.238Z,14.03
2023-02-26T16:25:30.359Z,11.63
2023-02-26T16:28:04.572Z,33.53
2023-02-26T16:30:39.271Z,30.17
2023-02-26T16:33:16.449Z,5.97
2023-02-26T16:35:50.088Z,9.60
2023-02-26T16:38:53.932Z,10.37
2023-02-26T16:41:26.314Z,10.00
2023-02-26T16:43:57.928Z,6.20
2023-02-26T16:46:43.163Z,9.90
2023-02-26T16:49:32.558Z,25.77
2023-02-26T16:52:01.325Z,21.93
2023-02-26T16:54:42.310Z,27.23
2023-02-26T16:57:16.782Z,31.83
2023-02-26T16:59:54.985Z,30.20
2023-02-26T17:02:26.516Z,72.87
2023-02-26T17:04:58.668Z,26.70
2023-02-26T17:07:35.582Z,53.10
2023-02-26T17:10:09.229Z,58.63
2023-02-26T17:12:52.541Z,64.17
2023-02-26T17:15:30.149Z,108.40
2023-02-26T17:17:59.394Z,51.30
2023-02-26T17:20:28.160Z,51.70
2023-02-26T17:22:57.197Z,42.47
2023-02-26T17:25:29.269Z,51.40
2023-02-26T17:27:57.776Z,65.00
2023-02-26T17:30:25.950Z,29.60
2023-02-26T17:32:54.375Z,31.67
2023-02-26T17:35:22.301Z,43.70
2023-02-26T17:37:52.496Z,52.43
2023-02-26T17:40:25.214Z,58.60
2023-02-26T17:42:53.460Z,86.43
2023-02-26T17:45:21.357Z,42.00
2023-02-26T17:47:50.332Z,42.57
2023-02-26T17:50:26.879Z,64.57
2023-02-26T17:52:55.646Z,73.23
2023-02-26T17:55:23.523Z,92.10
2023-02-26T17:57:51.553Z,56.17
2023-02-26T18:00:19.584Z,45.00
2023-02-26T18:02:47.554Z,31.50
2023-02-26T18:05:15.450Z,86.57
2023-02-26T18:07:43.818Z,75.17
2023-02-26T18:10:25.132Z,60.07
2023-02-26T18:12:53.674Z,46.43
2023-02-26T18:15:21.562Z,61.23
2023-02-26T18:17:50.572Z,45.57
2023-02-26T18:20:22.871Z,55.83
2023-02-26T18:22:52.023Z,52.40
2023-02-26T18:25:20.495Z,86.30
2023-02-26T18:27:54.746Z,114.97
2023-02-26T18:30:26.196Z,52.03
2023-02-26T18:32:54.792Z,75.37
2023-02-26T18:35:25.825Z,51.20
2023-02-26T18:37:54.587Z,55.27
2023-02-26T18:40:27.953Z,60.50
2023-02-26T18:42:57.605Z,52.47
2023-02-26T18:45:26.287Z,75.60
2023-02-26T18:47:55.318Z,45.90
2023-02-26T18:50:23.726Z,33.07
2023-02-26T18:52:52.201Z,34.43
2023-02-26T18:55:20.019Z,33.77
2023-02-26T18:57:51.303Z,31.90
2023-02-26T19:00:20.627Z,35.10
2023-02-26T19:02:49.727Z,38.27
2023-02-26T19:05:24.672Z,37.70
2023-02-26T19:07:55.790Z,32.20
2023-02-26T19:10:24.353Z,41.80
2023-02-26T19:12:53.805Z,36.07
2023-02-26T19:15:25.346Z,30.20
2023-02-26T19:17:55.428Z,24.97
2023-02-26T19:20:25.091Z,24.97
2023-02-26T19:22:54.216Z,24.97
2023-02-26T19:25:24.805Z,27.93
2023-02-26T19:27:55.016Z,28.13
2023-02-26T19:30:24.090Z,27.90
2023-02-26T19:32:55.146Z,19.93
2023-02-26T19:35:27.221Z,25.13
2023-02-26T19:37:56.304Z,28.97
2023-02-26T19:40:25.795Z,33.73
2023-02-26T19:42:54.507Z,42.30
2023-02-26T19:45:22.947Z,31.40
2023-02-26T19:47:51.197Z,26.97
2023-02-26T19:50:19.984Z,29.30
2023-02-26T19:52:49.303Z,32.90
2023-02-26T19:55:20.733Z,26.63
2023-02-26T19:57:50.567Z,23.93
2023-02-26T20:00:19.340Z,21.90
2023-02-26T20:02:49.887Z,21.97
2023-02-26T20:05:19.021Z,22.20
2023-02-26T20:07:48.884Z,26.50
2023-02-26T20:10:17.654Z,23.17
2023-02-26T20:12:46.884Z,22.03
2023-02-26T20:15:15.199Z,47.57
2023-02-26T20:17:44.652Z,50.97
2023-02-26T20:20:13.318Z,45.37
2023-02-26T20:22:42.393Z,53.10
2023-02-26T20:25:11.776Z,62.50
2023-02-26T20:27:40.965Z,67.97
2023-02-26T20:30:09.720Z,92.13
2023-02-26T20:32:38.583Z,122.37
2023-02-26T20:35:07.026Z,82.23
2023-02-26T20:37:35.907Z,52.93
2023-02-26T20:40:05.894Z,52.63
2023-02-26T20:42:34.817Z,46.83
2023-02-26T20:45:04.100Z,41.97
2023-02-26T20:47:34.368Z,48.47
2023-02-26T20:50:04.120Z,29.43
2023-02-26T20:52:33.692Z,27.23
2023-02-26T20:55:02.750Z,19.87
2023-02-26T20:57:32.991Z,26.20
2023-02-26T21:00:10.416Z,53.00
2023-02-26T21:02:39.578Z,42.67
2023-02-26T21:05:09.241Z,25.83
2023-02-26T21:07:40.109Z,22.07
2023-02-26T21:10:15.245Z,28.47
2023-02-26T21:12:43.889Z,23.50
2023-02-26T21:15:15.581Z,22.50
2023-02-26T21:17:45.536Z,22.90
2023-02-26T21:20:18.566Z,22.37
2023-02-26T21:22:47.693Z,24.00
2023-02-26T21:25:16.825Z,22.30
2023-02-26T21:27:45.624Z,22.03
2023-02-26T21:30:14.266Z,17.47
2023-02-26T21:32:44.492Z,19.03
2023-02-26T21:35:16.883Z,19.37
2023-02-26T21:37:45.907Z,21.17
2023-02-26T21:40:15.001Z,25.10
2023-02-26T21:42:44.205Z,26.43
2023-02-26T21:45:13.409Z,24.43
2023-02-26T21:47:42.883Z,22.30
2023-02-26T21:50:11.712Z,22.90
2023-02-26T21:52:40.277Z,24.80
2023-02-26T21:55:12.442Z,35.07
2023-02-26T21:57:41.394Z,32.97
2023-02-26T22:00:15.758Z,49.53
2023-02-26T22:02:44.865Z,44.27
2023-02-26T22:05:13.151Z,35.93
2023-02-26T22:07:41.260Z,31.80
2023-02-26T22:10:10.298Z,35.20
2023-02-26T22:12:38.847Z,32.07
2023-02-26T22:15:07.594Z,29.93
2023-02-26T22:17:36.196Z,23.23
2023-02-26T22:20:07.452Z,21.63
2023-02-26T22:22:39.117Z,23.40
2023-02-26T22:25:08.077Z,25.23
2023-02-26T22:27:36.802Z,26.53
2023-02-26T22:30:05.969Z,21.97
2023-02-26T22:32:34.252Z,22.80
2023-02-26T22:35:02.509Z,23.00
2023-02-26T22:37:30.753Z,22.67
2023-02-26T22:39:58.722Z,21.60
2023-02-26T22:42:26.717Z,27.00
2023-02-26T22:44:54.450Z,28.57
2023-02-26T22:47:22.635Z,37.77
2023-02-26T22:49:50.503Z,52.27
2023-02-26T22:52:19.389Z,51.77
2023-02-26T22:54:48.048Z,41.20
2023-02-26T22:57:16.680Z,17.93
2023-02-26T22:59:45.082Z,12.90
2023-02-26T23:02:13.252Z,16.40
2023-02-26T23:04:41.124Z,17.07
2023-02-26T23:07:10.542Z,15.90
2023-02-26T23:09:38.337Z,15.47
2023-02-26T23:12:07.322Z,15.43
2023-02-26T23:14:35.504Z,15.53
2023-02-26T23:17:04.830Z,16.13
2023-02-26T23:19:32.640Z,15.17
2023-02-26T23:22:00.660Z,17.80
2023-02-26T23:24:28.418Z,17.27
2023-02-26T23:26:56.714Z,18.67
2023-02-26T23:29:24.920Z,17.67
2023-02-26T23:31:53.079Z,16.50
2023-02-26T23:34:21.378Z,14.33
2023-02-26T23:36:49.348Z,15.50
2023-02-26T23:39:17.339Z,14.27
2023-02-26T23:41:45.583Z,16.37
2023-02-26T23:44:14.180Z,19.83
2023-02-26T23:46:42.480Z,29.17
2023-02-26T23:49:10.381Z,32.77
2023-02-26T23:51:38.680Z,31.90
2023-02-26T23:54:07.256Z,18.90
2023-02-26T23:56:35.713Z,14.27
2023-02-26T23:59:04.289Z,13.97
